createdAt,value
2018-12-14T00:00:32.177Z,96.40
2018-12-14T00:03:02.560Z,95.45
2018-12-14T00:05:32.319Z,94.90
2018-12-14T00:08:03.271Z,94.56
2018-12-14T00:10:33.782Z,94.74
2018-12-14T00:13:05.945Z,94.92
2018-12-14T00:15:35.217Z,95.42
2018-12-14T00:18:04.918Z,95.32
2018-12-14T00:20:34.830Z,95.80
2018-12-14T00:23:04.357Z,95.84
2018-12-14T00:25:33.603Z,95.59
2018-12-14T00:28:03.716Z,96.67
2018-12-14T00:30:33.797Z,96.66
2018-12-14T00:33:03.369Z,96.56
2018-12-14T00:35:32.836Z,96.35
2018-12-14T00:38:03.562Z,96.56
2018-12-14T00:40:32.805Z,96.76
2018-12-14T00:43:02.974Z,96.25
2018-12-14T00:45:32.583Z,96.97
2018-12-14T00:48:02.417Z,97.07
2018-12-14T00:50:31.696Z,96.60
2018-12-14T00:53:00.913Z,96.96
2018-12-14T00:55:33.045Z,96.73
2018-12-14T00:58:03.724Z,96.83
2018-12-14T01:00:36.581Z,98.05
2018-12-14T01:03:05.867Z,97.58
2018-12-14T01:05:36.072Z,97.97
2018-12-14T01:08:06.445Z,97.87
2018-12-14T01:10:37.700Z,96.92
2018-12-14T01:13:07.390Z,97.36
2018-12-14T01:15:36.628Z,97.61
2018-12-14T01:18:05.874Z,97.57
2018-12-14T01:20:35.692Z,98.15
2018-12-14T01:23:05.922Z,98.14
2018-12-14T01:25:35.524Z,97.53
2018-12-14T01:28:05.864Z,98.54
2018-12-14T01:30:35.546Z,98.80
2018-12-14T01:33:04.758Z,98.73
2018-12-14T01:35:34.375Z,98.80
2018-12-14T01:38:03.635Z,98.80
2018-12-14T01:40:32.884Z,98.16
2018-12-14T01:43:02.626Z,98.93
2018-12-14T01:45:31.862Z,98.24
2018-12-14T01:48:01.325Z,98.53
2018-12-14T01:50:31.501Z,98.60
2018-12-14T01:53:01.236Z,97.92
2018-12-14T01:55:30.912Z,97.90
2018-12-14T01:58:00.308Z,97.94
2018-12-14T02:00:29.975Z,98.93
2018-12-14T02:02:59.881Z,98.73
2018-12-14T02:05:29.093Z,98.17
2018-12-14T02:07:58.295Z,98.03
2018-12-14T02:10:27.956Z,98.29
2018-12-14T02:12:57.152Z,98.68
2018-12-14T02:15:26.382Z,98.39
2018-12-14T02:17:55.622Z,98.77
2018-12-14T02:20:24.880Z,98.41
2018-12-14T02:22:54.130Z,98.18
2018-12-14T02:25:23.720Z,97.79
2018-12-14T02:27:53.476Z,98.06
2018-12-14T02:30:47.559Z,98.38
2018-12-14T02:33:16.821Z,98.47
2018-12-14T02:35:46.082Z,99.23
2018-12-14T02:38:16.242Z,99.66
2018-12-14T02:40:45.541Z,100.00
2018-12-14T02:43:15.278Z,99.82
2018-12-14T02:45:44.514Z,100.00
2018-12-14T02:48:14.131Z,100.00
2018-12-14T02:50:44.599Z,99.54
2018-12-14T02:53:13.799Z,99.56
2018-12-14T02:55:43.054Z,99.01
2018-12-14T02:58:12.602Z,99.08
2018-12-14T03:00:42.389Z,98.82
2018-12-14T03:03:11.921Z,97.91
2018-12-14T03:05:41.397Z,98.34
2018-12-14T03:08:11.614Z,97.89
2018-12-14T03:10:41.492Z,97.06
2018-12-14T03:13:11.609Z,96.65
2018-12-14T03:15:40.878Z,96.40
2018-12-14T03:18:10.593Z,97.08
2018-12-14T03:20:40.531Z,96.94
2018-12-14T03:23:09.732Z,96.03
2018-12-14T03:25:40.023Z,96.82
2018-12-14T03:28:09.418Z,96.58
2018-12-14T03:30:38.661Z,96.61
2018-12-14T03:33:08.433Z,96.03
2018-12-14T03:35:39.324Z,95.90
2018-12-14T03:38:10.143Z,94.77
2018-12-14T03:40:39.769Z,95.68
2018-12-14T03:43:09.031Z,95.09
2018-12-14T03:45:38.299Z,94.10
2018-12-14T03:48:08.922Z,93.97
2018-12-14T03:50:38.130Z,94.24
2018-12-14T03:53:07.387Z,93.66
2018-12-14T03:55:36.652Z,93.36
2018-12-14T03:58:06.336Z,93.81
2018-12-14T04:00:35.657Z,93.29
2018-12-14T04:03:05.043Z,92.70
2018-12-14T04:05:34.605Z,93.38
2018-12-14T04:08:03.824Z,92.64
2018-12-14T04:10:33.056Z,93.41
2018-12-14T04:13:03.023Z,93.13
2018-12-14T04:15:32.433Z,93.37
2018-12-14T04:18:01.725Z,94.52
2018-12-14T04:20:30.937Z,93.98
2018-12-14T04:23:00.502Z,94.09
2018-12-14T04:25:29.733Z,94.95
2018-12-14T04:27:58.998Z,94.85
2018-12-14T04:30:28.236Z,95.55
2018-12-14T04:32:57.485Z,94.76
2018-12-14T04:35:26.767Z,95.16
2018-12-14T04:37:56.022Z,95.16
2018-12-14T04:40:25.452Z,94.08
2018-12-14T04:42:54.756Z,94.06
2018-12-14T04:45:24.427Z,94.75
2018-12-14T04:47:53.628Z,94.32
2018-12-14T04:50:22.834Z,94.29
2018-12-14T04:52:52.219Z,93.69
2018-12-14T04:55:21.460Z,93.83
2018-12-14T04:57:50.700Z,93.93
2018-12-14T05:00:20.452Z,93.77
2018-12-14T05:02:49.712Z,93.28
2018-12-14T05:05:19.817Z,94.18
2018-12-14T05:07:49.492Z,93.83
2018-12-14T05:10:18.706Z,93.49
2018-12-14T05:12:47.938Z,94.42
2018-12-14T05:15:17.157Z,93.64
2018-12-14T05:17:46.698Z,94.21
2018-12-14T05:20:16.933Z,94.52
2018-12-14T05:22:46.611Z,93.75
2018-12-14T05:25:16.253Z,94.52
2018-12-14T05:27:45.828Z,95.21
2018-12-14T05:30:15.512Z,95.33
2018-12-14T05:32:44.719Z,95.80
2018-12-14T05:35:14.349Z,95.15
2018-12-14T05:37:43.622Z,95.52
2018-12-14T05:40:12.937Z,96.53
2018-12-14T05:42:42.226Z,95.74
2018-12-14T05:45:11.495Z,96.42
2018-12-14T05:47:40.746Z,96.63
2018-12-14T05:53:32.883Z,96.42
2018-12-14T05:56:05.049Z,96.72
2018-12-14T05:58:34.692Z,95.97
2018-12-14T06:01:04.044Z,96.15
2018-12-14T06:09:49.029Z,96.54
2018-12-14T06:12:19.250Z,96.95
2018-12-14T06:14:48.780Z,96.56
2018-12-14T06:17:18.514Z,96.34
2018-12-14T06:19:47.787Z,96.42
2018-12-14T06:22:19.173Z,96.25
2018-12-14T06:24:49.086Z,96.55
2018-12-14T06:27:18.545Z,96.41
2018-12-14T06:29:48.400Z,96.33
2018-12-14T06:32:18.519Z,96.35
2018-12-14T06:34:47.772Z,96.61
2018-12-14T06:37:17.352Z,97.19
2018-12-14T06:39:47.626Z,96.91
2018-12-14T06:42:18.208Z,97.49
2018-12-14T06:44:49.653Z,96.42
2018-12-14T06:47:19.310Z,96.02
2018-12-14T06:49:48.598Z,95.72
2018-12-14T06:52:17.867Z,96.00
2018-12-14T06:54:47.124Z,96.33
2018-12-14T06:57:16.385Z,96.51
2018-12-14T06:59:46.392Z,96.40
2018-12-14T07:02:15.588Z,96.74
2018-12-14T07:04:44.925Z,96.49
2018-12-14T07:07:14.745Z,96.64
2018-12-14T07:09:44.039Z,96.91
2018-12-14T07:12:13.434Z,97.01
2018-12-14T07:14:42.782Z,96.57
2018-12-14T07:17:12.932Z,97.11
2018-12-14T07:19:42.144Z,97.19
2018-12-14T07:22:11.610Z,96.88
2018-12-14T07:24:41.076Z,96.84
2018-12-14T07:27:10.660Z,96.21
2018-12-14T07:29:39.901Z,95.68
2018-12-14T07:32:09.530Z,95.42
2018-12-14T07:34:39.866Z,95.71
2018-12-14T07:37:09.352Z,95.34
2018-12-14T07:39:38.568Z,95.65
2018-12-14T07:42:08.259Z,94.79
2018-12-14T07:44:38.171Z,94.99
2018-12-14T07:47:11.680Z,95.55
2018-12-14T07:49:40.089Z,95.39
2018-12-14T07:52:09.289Z,95.50
2018-12-14T07:54:38.879Z,95.35
2018-12-14T07:57:08.300Z,95.44
2018-12-14T07:59:37.893Z,95.26
2018-12-14T08:02:07.078Z,95.11
2018-12-14T08:04:36.328Z,94.44
2018-12-14T08:07:06.820Z,94.35
2018-12-14T08:09:36.040Z,94.65
2018-12-14T08:12:05.301Z,94.58
2018-12-14T08:14:34.925Z,94.21
2018-12-14T08:17:04.163Z,95.20
2018-12-14T08:19:33.446Z,94.24
2018-12-14T08:22:03.717Z,94.35
2018-12-14T08:24:32.988Z,93.60
2018-12-14T08:27:02.641Z,93.42
2018-12-14T08:29:32.350Z,93.55
2018-12-14T08:32:01.570Z,92.63
2018-12-14T08:34:31.202Z,93.04
2018-12-14T08:37:02.000Z,93.18
2018-12-14T08:39:33.325Z,92.91
2018-12-14T08:42:05.543Z,93.15
2018-12-14T08:44:35.702Z,93.45
2018-12-14T08:47:06.209Z,93.20
2018-12-14T08:49:35.456Z,93.14
2018-12-14T08:52:04.980Z,92.59
2018-12-14T08:54:34.227Z,92.99
2018-12-14T08:57:04.566Z,93.47
2018-12-14T08:59:34.169Z,93.38
2018-12-14T09:02:03.467Z,92.65
2018-12-14T09:04:37.381Z,93.64
2018-12-14T09:07:07.601Z,92.87
2018-12-14T09:09:38.116Z,92.92
2018-12-14T09:12:07.329Z,92.99
2018-12-14T09:14:36.940Z,92.27
2018-12-14T09:17:06.737Z,91.92
2018-12-14T09:19:36.853Z,92.32
2018-12-14T09:22:06.105Z,91.13
2018-12-14T09:24:36.638Z,92.86
2018-12-14T09:27:12.477Z,92.38
2018-12-14T09:29:42.883Z,92.36
2018-12-14T09:32:12.750Z,92.18
2018-12-14T09:34:42.914Z,91.47
2018-12-14T09:37:13.897Z,91.68
2018-12-14T09:39:43.152Z,92.29
2018-12-14T09:42:14.112Z,92.72
2018-12-14T09:44:43.375Z,92.94
2018-12-14T09:47:12.619Z,91.85
2018-12-14T09:49:42.233Z,91.50
2018-12-14T09:52:13.756Z,91.37
2018-12-14T09:54:43.693Z,91.16
2018-12-14T09:57:12.954Z,90.01
2018-12-14T09:59:43.345Z,89.78
2018-12-14T10:02:12.761Z,89.74
2018-12-14T10:04:42.007Z,88.89
2018-12-14T10:07:11.679Z,87.70
2018-12-14T10:09:41.273Z,88.74
2018-12-14T10:12:10.536Z,87.60
2018-12-14T10:14:40.591Z,88.71
2018-12-14T10:17:10.494Z,88.05
2018-12-14T10:19:40.625Z,88.04
2018-12-14T10:22:10.783Z,87.94
2018-12-14T10:24:41.102Z,86.54
2018-12-14T10:27:10.383Z,87.84
2018-12-14T10:29:39.877Z,87.89
2018-12-14T10:32:10.077Z,87.33
2018-12-14T10:34:53.885Z,87.44
2018-12-14T10:37:24.164Z,86.85
2018-12-14T10:39:54.160Z,87.35
2018-12-14T10:42:25.041Z,87.98
2018-12-14T10:44:54.453Z,88.71
2018-12-14T10:47:23.694Z,88.42
2018-12-14T10:49:53.353Z,88.50
2018-12-14T10:52:23.858Z,87.26
2018-12-14T10:54:54.612Z,89.17
2018-12-14T10:57:24.088Z,88.83
2018-12-14T10:59:53.890Z,89.24
2018-12-14T11:02:24.078Z,88.76
2018-12-14T11:04:53.847Z,89.25
2018-12-14T11:07:23.136Z,88.54
2018-12-14T11:09:52.376Z,90.04
2018-12-14T11:12:21.648Z,89.07
2018-12-14T11:14:51.175Z,89.29
2018-12-14T11:17:20.660Z,88.92
2018-12-14T11:19:49.972Z,89.20
2018-12-14T11:22:20.923Z,88.93
2018-12-14T11:24:50.157Z,88.93
2018-12-14T11:27:19.776Z,88.12
2018-12-14T11:29:49.452Z,87.60
2018-12-14T11:32:18.673Z,87.75
2018-12-14T11:34:47.890Z,88.09
2018-12-14T11:37:17.861Z,87.22
2018-12-14T11:39:47.985Z,88.35
2018-12-14T11:42:17.380Z,87.59
2018-12-14T11:44:46.801Z,86.71
2018-12-14T11:47:18.342Z,86.13
2018-12-14T11:49:49.229Z,86.75
2018-12-14T11:52:18.570Z,88.00
2018-12-14T11:54:48.451Z,88.31
2018-12-14T11:57:17.750Z,86.75
2018-12-14T11:59:47.591Z,86.76
2018-12-14T12:02:19.434Z,86.93
2018-12-14T12:04:50.797Z,87.46
2018-12-14T12:07:21.533Z,87.85
2018-12-14T12:09:51.205Z,89.78
2018-12-14T12:12:21.730Z,89.55
2018-12-14T12:14:51.848Z,87.94
2018-12-14T12:17:21.610Z,87.17
2018-12-14T12:19:51.285Z,88.14
2018-12-14T12:22:21.832Z,88.17
2018-12-14T12:24:51.910Z,87.92
2018-12-14T12:27:21.420Z,87.43
2018-12-14T12:29:50.805Z,86.95
2018-12-14T12:32:20.249Z,87.16
2018-12-14T12:34:49.900Z,87.32
2018-12-14T12:37:20.777Z,86.82
2018-12-14T12:42:49.046Z,87.08
2018-12-14T12:45:20.289Z,85.84
2018-12-14T12:47:50.136Z,85.66
2018-12-14T12:50:20.594Z,85.32
2018-12-14T12:52:50.721Z,86.55
2018-12-14T12:55:19.976Z,86.92
2018-12-14T12:57:53.511Z,87.03
2018-12-14T13:00:24.717Z,87.14
2018-12-14T13:02:54.345Z,87.59
2018-12-14T13:05:23.870Z,86.47
2018-12-14T13:07:54.038Z,87.06
2018-12-14T13:10:24.476Z,87.58
2018-12-14T13:12:55.461Z,86.80
2018-12-14T13:15:24.779Z,86.73
2018-12-14T13:17:54.399Z,86.93
2018-12-14T13:20:24.613Z,85.16
2018-12-14T13:22:55.280Z,85.73
2018-12-14T13:25:25.397Z,87.51
2018-12-14T13:27:56.020Z,86.80
2018-12-14T13:30:25.785Z,88.28
2018-12-14T13:32:57.298Z,87.90
2018-12-14T13:35:27.132Z,87.70
2018-12-14T13:37:58.528Z,88.07
2018-12-14T13:40:28.130Z,88.79
2018-12-14T13:42:57.430Z,89.74
2018-12-14T13:45:27.086Z,90.31
2018-12-14T13:47:56.927Z,90.90
2018-12-14T13:50:26.425Z,91.95
2018-12-14T13:52:57.430Z,91.88
2018-12-14T13:55:27.276Z,91.56
2018-12-14T13:57:57.638Z,90.41
2018-12-14T14:00:28.420Z,90.83
2018-12-14T14:02:59.000Z,90.52
2018-12-14T14:05:28.617Z,90.41
2018-12-14T14:07:58.044Z,90.76
2018-12-14T14:10:29.883Z,90.94
2018-12-14T14:13:00.802Z,91.20
2018-12-14T14:15:34.815Z,89.18
2018-12-14T14:18:05.654Z,89.73
2018-12-14T14:20:36.500Z,89.75
2018-12-14T14:23:06.021Z,89.52
2018-12-14T14:25:36.621Z,88.89
2018-12-14T14:28:07.180Z,89.91
2018-12-14T14:30:37.857Z,89.71
2018-12-14T14:33:09.313Z,91.99
2018-12-14T14:35:38.577Z,92.08
2018-12-14T14:38:09.670Z,92.18
2018-12-14T14:40:38.953Z,92.15
2018-12-14T14:43:08.891Z,91.78
2018-12-14T14:45:39.565Z,92.57
2018-12-14T14:48:09.183Z,92.41
2018-12-14T14:50:39.417Z,91.67
2018-12-14T14:53:09.691Z,91.09
2018-12-14T14:55:40.474Z,90.71
2018-12-14T14:58:12.447Z,91.66
2018-12-14T15:00:42.512Z,91.96
2018-12-14T15:03:13.397Z,91.93
2018-12-14T15:05:46.725Z,90.39
2018-12-14T15:08:16.480Z,89.02
2018-12-14T15:10:46.064Z,90.21
2018-12-14T15:13:18.091Z,90.06
2018-12-14T15:15:49.651Z,90.19
2018-12-14T15:18:19.573Z,89.15
2018-12-14T15:20:51.534Z,88.14
2018-12-14T15:23:23.997Z,88.73
2018-12-14T15:25:53.901Z,88.79
2018-12-14T15:28:23.513Z,88.23
2018-12-14T15:30:53.501Z,88.09
2018-12-14T15:33:23.250Z,86.98
2018-12-14T15:35:52.569Z,88.20
2018-12-14T15:38:23.226Z,87.37
2018-12-14T15:40:54.455Z,87.20
2018-12-14T15:43:23.724Z,87.29
2018-12-14T15:45:56.252Z,88.89
2018-12-14T15:48:27.109Z,89.47
2018-12-14T15:50:56.386Z,90.56
2018-12-14T15:53:29.766Z,91.75
2018-12-14T15:56:01.633Z,92.18
2018-12-14T15:58:33.526Z,91.63
2018-12-14T16:01:03.982Z,91.79
2018-12-14T16:03:38.825Z,92.23
2018-12-14T16:06:12.036Z,93.23
2018-12-14T16:08:43.062Z,92.93
2018-12-14T16:11:12.325Z,93.29
2018-12-14T16:13:45.240Z,92.85
2018-12-14T16:16:15.113Z,92.87
2018-12-14T16:18:48.577Z,92.77
2018-12-14T16:21:19.530Z,94.02
2018-12-14T16:23:57.435Z,93.66
2018-12-14T16:26:37.244Z,93.57
2018-12-14T16:29:09.935Z,92.94
2018-12-14T16:31:41.689Z,92.49
2018-12-14T16:34:15.728Z,90.58
2018-12-14T16:36:50.413Z,92.03
2018-12-14T16:39:21.103Z,92.17
2018-12-14T16:41:50.917Z,92.71
2018-12-14T16:44:21.054Z,90.88
2018-12-14T16:46:54.339Z,91.47
2018-12-14T16:49:26.118Z,91.84
2018-12-14T16:52:13.605Z,91.41
2018-12-14T16:54:49.574Z,91.04
2018-12-14T16:57:21.263Z,91.68
2018-12-14T16:59:57.225Z,91.86
2018-12-14T17:02:33.235Z,92.56
2018-12-14T17:05:11.640Z,91.68
2018-12-14T17:07:41.697Z,91.99
2018-12-14T17:10:19.245Z,92.29
2018-12-14T17:12:52.156Z,91.26
2018-12-14T17:15:25.006Z,91.85
2018-12-14T17:18:09.741Z,93.14
2018-12-14T17:24:13.250Z,93.16
2018-12-14T17:26:45.185Z,92.85
2018-12-14T17:29:18.180Z,93.62
2018-12-14T17:31:50.980Z,93.37
2018-12-14T17:34:23.910Z,93.80
2018-12-14T17:36:54.783Z,94.03
2018-12-14T17:39:32.834Z,94.71
2018-12-14T17:42:07.750Z,94.41
2018-12-14T17:44:38.728Z,94.08
2018-12-14T17:47:14.112Z,93.57
2018-12-14T17:49:52.959Z,94.54
2018-12-14T17:52:25.024Z,93.61
2018-12-14T17:54:54.503Z,93.18
2018-12-14T17:57:37.905Z,93.83
2018-12-14T18:00:12.923Z,93.89
2018-12-14T18:02:57.239Z,94.07
2018-12-14T18:08:29.932Z,93.04
2018-12-14T18:13:48.482Z,93.59
2018-12-14T18:16:38.344Z,94.02
2018-12-14T18:19:11.717Z,94.49
2018-12-14T18:21:44.836Z,94.73
2018-12-14T18:24:19.507Z,93.79
2018-12-14T18:29:33.593Z,94.13
2018-12-14T18:32:04.467Z,93.51
2018-12-14T18:34:35.637Z,94.07
2018-12-14T18:37:04.955Z,93.84
2018-12-14T18:39:38.075Z,93.93
2018-12-14T18:42:09.943Z,93.22
2018-12-14T18:44:40.510Z,93.14
2018-12-14T18:47:12.630Z,92.99
2018-12-14T18:49:49.656Z,93.22
2018-12-14T18:52:26.399Z,93.19
2018-12-14T18:54:57.505Z,93.04
2018-12-14T18:57:33.551Z,93.36
2018-12-14T19:00:08.750Z,93.34
2018-12-14T19:02:45.355Z,93.20
2018-12-14T19:05:18.451Z,93.92
2018-12-14T19:08:06.444Z,93.93
2018-12-14T19:10:37.128Z,94.25
2018-12-14T19:13:27.748Z,94.14
2018-12-14T19:15:59.877Z,93.18
2018-12-14T19:18:38.680Z,92.66
2018-12-14T19:21:13.093Z,92.94
2018-12-14T19:23:43.645Z,92.86
2018-12-14T19:26:13.146Z,92.82
2018-12-14T19:28:42.993Z,92.99
2018-12-14T19:31:13.743Z,93.57
2018-12-14T19:33:43.919Z,93.38
2018-12-14T19:36:14.362Z,93.60
2018-12-14T19:38:44.125Z,94.53
2018-12-14T19:41:13.537Z,94.58
2018-12-14T19:43:44.385Z,94.35
2018-12-14T19:46:14.647Z,94.93
2018-12-14T19:48:46.293Z,94.69
2018-12-14T19:51:16.956Z,95.17
2018-12-14T19:54:24.148Z,95.27
2018-12-14T19:56:58.246Z,95.10
2018-12-14T19:59:30.963Z,95.55
2018-12-14T20:02:03.853Z,95.66
2018-12-14T20:04:35.294Z,95.78
2018-12-14T20:07:07.262Z,95.24
2018-12-14T20:09:51.544Z,95.38
2018-12-14T20:12:23.648Z,94.50
2018-12-14T20:14:58.552Z,94.39
2018-12-14T20:17:28.610Z,94.95
2018-12-14T20:22:59.198Z,94.89
2018-12-14T20:25:29.097Z,94.54
2018-12-14T20:28:03.671Z,94.76
2018-12-14T20:30:33.604Z,94.57
2018-12-14T20:33:02.945Z,95.00
2018-12-14T20:35:33.464Z,95.26
2018-12-14T20:38:03.937Z,95.07
2018-12-14T20:40:37.121Z,95.29
2018-12-14T20:43:10.150Z,95.28
2018-12-14T20:45:42.108Z,95.71
2018-12-14T20:48:11.746Z,95.63
2018-12-14T20:50:41.352Z,95.19
2018-12-14T20:53:13.709Z,96.13
2018-12-14T20:55:49.668Z,95.52
2018-12-14T20:58:22.754Z,94.66
2018-12-14T21:00:57.724Z,94.01
2018-12-14T21:03:28.944Z,94.41
2018-12-14T21:06:00.185Z,94.09
2018-12-14T21:08:52.008Z,94.73
2018-12-14T21:11:21.559Z,94.22
2018-12-14T21:13:51.895Z,94.58
2018-12-14T21:16:25.949Z,94.35
2018-12-14T21:18:54.516Z,94.71
2018-12-14T21:21:23.726Z,94.18
2018-12-14T21:23:53.951Z,94.94
2018-12-14T21:26:24.873Z,94.25
2018-12-14T21:28:56.749Z,94.97
2018-12-14T21:31:29.362Z,95.71
2018-12-14T21:34:02.352Z,94.49
2018-12-14T21:36:33.654Z,95.14
2018-12-14T21:39:04.760Z,94.56
2018-12-14T21:41:37.496Z,94.59
2018-12-14T21:44:08.045Z,95.16
2018-12-14T21:46:37.881Z,94.72
2018-12-14T21:49:08.310Z,95.13
2018-12-14T21:51:38.360Z,94.56
2018-12-14T21:54:09.948Z,95.03
2018-12-14T21:56:40.421Z,94.92
2018-12-14T21:59:10.398Z,95.46
2018-12-14T22:01:39.965Z,95.38
2018-12-14T22:04:09.598Z,96.17
2018-12-14T22:06:39.019Z,95.09
2018-12-14T22:09:12.449Z,94.85
2018-12-14T22:11:42.460Z,95.09
2018-12-14T22:14:12.249Z,95.40
2018-12-14T22:16:46.102Z,94.49
2018-12-14T22:19:16.211Z,95.45
2018-12-14T22:21:46.092Z,94.49
2018-12-14T22:24:15.588Z,95.07
2018-12-14T22:26:44.845Z,94.97
2018-12-14T22:29:14.084Z,95.12
2018-12-14T22:31:43.668Z,95.50
2018-12-14T22:34:14.316Z,95.56
2018-12-14T22:36:44.714Z,94.92
2018-12-14T22:39:15.589Z,95.11
2018-12-14T22:41:45.809Z,95.55
2018-12-14T22:44:21.248Z,94.96
2018-12-14T22:46:47.485Z,95.04
2018-12-14T22:49:18.217Z,95.13
2018-12-14T22:51:47.756Z,95.52
2018-12-14T22:54:18.113Z,95.74
2018-12-14T22:56:47.561Z,95.09
2018-12-14T22:59:20.001Z,95.29
2018-12-14T23:01:50.325Z,95.21
2018-12-14T23:04:21.020Z,95.49
2018-12-14T23:06:52.078Z,95.32
2018-12-14T23:09:21.645Z,96.10
2018-12-14T23:11:55.030Z,96.53
2018-12-14T23:14:25.475Z,95.94
2018-12-14T23:16:54.759Z,96.71
2018-12-14T23:19:24.034Z,96.30
2018-12-14T23:21:53.746Z,96.57
2018-12-14T23:24:23.027Z,95.72
2018-12-14T23:26:53.441Z,96.70
2018-12-14T23:29:23.222Z,96.86
2018-12-14T23:31:52.722Z,96.37
2018-12-14T23:34:28.964Z,96.15
2018-12-14T23:36:58.543Z,96.14
2018-12-14T23:39:27.868Z,96.21
2018-12-14T23:41:57.452Z,95.84
2018-12-14T23:44:27.269Z,97.14
2018-12-14T23:46:58.864Z,96.67
2018-12-14T23:49:30.110Z,97.33
2018-12-14T23:51:59.642Z,96.38
2018-12-14T23:54:29.773Z,96.10
2018-12-14T23:56:59.008Z,96.76
2018-12-14T23:59:29.157Z,96.87
